Time;durP1;ratioP1;P1;durP2;ratioP2;P2;SDS_P1;SDS_P2;PMS_P1;PMS_P2;Temp;Humidity;BMP_temperature;BMP_pressure;BME280_temperature;BME280_humidity;BME280_pressure;Samples;Min_cycle;Max_cycle;Signal;HPM_P1;HPM_P2
2021/09/10 00:00:16;;;;;;;19.85;16.58;;;20.90;87.10;;;;;;5006160;28;20494;-76
2021/09/10 00:02:41;;;;;;;20.40;17.08;;;20.90;87.00;;;;;;5006228;28;20534;-76
2021/09/10 00:05:08;;;;;;;19.17;16.83;;;20.80;87.00;;;;;;5012242;28;20137;-75
2021/09/10 00:07:34;;;;;;;21.20;17.15;;;20.80;87.10;;;;;;5004963;28;20034;-73
2021/09/10 00:10:00;;;;;;;22.27;16.85;;;20.80;87.20;;;;;;5002199;28;20030;-76
2021/09/10 00:12:25;;;;;;;19.33;17.27;;;20.70;87.20;;;;;;5001909;28;20485;-74
2021/09/10 00:14:51;;;;;;;19.75;17.65;;;20.70;87.20;;;;;;5006979;28;20485;-75
2021/09/10 00:17:17;;;;;;;19.70;17.60;;;20.70;87.20;;;;;;5008894;28;20390;-76
2021/09/10 00:19:43;;;;;;;23.25;16.98;;;20.60;87.20;;;;;;5005009;28;20057;-75
2021/09/10 00:22:09;;;;;;;20.55;17.85;;;20.60;87.20;;;;;;5007916;28;20409;-75
2021/09/10 00:24:36;;;;;;;20.75;17.30;;;20.60;87.30;;;;;;5006484;28;20473;-74
2021/09/10 00:27:02;;;;;;;19.55;16.65;;;20.60;87.40;;;;;;5005633;28;20424;-74
2021/09/10 00:29:28;;;;;;;19.17;16.20;;;20.50;87.30;;;;;;5026463;28;20030;-74
2021/09/10 00:31:53;;;;;;;20.67;16.08;;;20.50;87.40;;;;;;5009010;28;20113;-75
2021/09/10 00:34:19;;;;;;;21.88;16.73;;;20.40;87.40;;;;;;5005821;28;20493;-75
2021/09/10 00:36:46;;;;;;;20.42;16.65;;;20.40;87.60;;;;;;4999192;28;20029;-74
2021/09/10 00:39:17;;;;;;;21.70;16.55;;;20.40;87.50;;;;;;5000818;28;20504;-75
2021/09/10 00:41:43;;;;;;;18.95;16.15;;;20.30;87.50;;;;;;5003769;28;20041;-74
2021/09/10 00:44:09;;;;;;;23.73;15.75;;;20.30;87.40;;;;;;5002894;28;20034;-74
2021/09/10 00:46:36;;;;;;;17.83;15.75;;;20.30;87.50;;;;;;5003174;28;20050;-73
2021/09/10 00:49:02;;;;;;;17.80;14.88;;;20.30;87.40;;;;;;5005446;28;20041;-74
2021/09/10 00:51:28;;;;;;;19.45;15.38;;;20.30;87.40;;;;;;5010372;28;20902;-74
2021/09/10 00:53:54;;;;;;;18.65;14.25;;;20.20;87.30;;;;;;5007679;28;20516;-74
2021/09/10 00:56:20;;;;;;;17.63;14.40;;;20.20;87.40;;;;;;5000642;28;20552;-74
2021/09/10 00:58:45;;;;;;;18.92;14.23;;;20.20;87.30;;;;;;5006089;28;20038;-74
2021/09/10 01:01:11;;;;;;;18.08;13.40;;;20.20;87.20;;;;;;5000209;28;20071;-75
2021/09/10 01:03:38;;;;;;;23.00;14.18;;;20.20;87.20;;;;;;4999455;28;20045;-75
2021/09/10 01:06:05;;;;;;;17.10;14.02;;;20.10;87.30;;;;;;5007014;28;20048;-77
2021/09/10 01:08:31;;;;;;;15.65;12.75;;;20.10;87.30;;;;;;5006647;28;20076;-75
2021/09/10 01:10:59;;;;;;;17.00;13.60;;;20.10;87.10;;;;;;5010631;28;20363;-77
2021/09/10 01:13:26;;;;;;;16.23;12.70;;;20.10;87.10;;;;;;5005312;28;20030;-75
2021/09/10 01:15:52;;;;;;;15.38;12.35;;;20.10;87.10;;;;;;5005591;28;20038;-76
2021/09/10 01:18:20;;;;;;;13.45;10.90;;;20.00;87.00;;;;;;5000770;28;20556;-75
2021/09/10 01:20:48;;;;;;;17.13;12.55;;;20.00;87.10;;;;;;5010421;28;20040;-75
2021/09/10 01:23:14;;;;;;;15.63;12.07;;;20.00;87.10;;;;;;5012945;28;20045;-75
2021/09/10 01:25:40;;;;;;;15.57;12.05;;;20.00;87.10;;;;;;5007391;28;20121;-75
2021/09/10 01:28:05;;;;;;;15.07;11.93;;;20.00;87.10;;;;;;5006642;28;20120;-77
2021/09/10 01:30:33;;;;;;;16.08;11.93;;;19.90;87.10;;;;;;5008465;28;20063;-75
2021/09/10 01:33:03;;;;;;;14.88;11.27;;;19.90;87.10;;;;;;5007376;28;20111;-75
2021/09/10 01:35:29;;;;;;;17.25;11.77;;;19.90;86.90;;;;;;5003421;28;20038;-75
2021/09/10 01:37:55;;;;;;;15.63;11.13;;;19.90;86.80;;;;;;5006241;28;20397;-75
2021/09/10 01:40:21;;;;;;;15.70;11.73;;;19.90;86.80;;;;;;4996322;28;20043;-75
2021/09/10 01:42:47;;;;;;;13.77;10.98;;;19.80;86.90;;;;;;5006545;28;20107;-75
2021/09/10 01:45:14;;;;;;;13.73;10.90;;;19.70;86.80;;;;;;4996941;28;20500;-75
2021/09/10 01:47:40;;;;;;;16.58;11.75;;;19.70;86.70;;;;;;5038687;28;20040;-74
2021/09/10 01:50:09;;;;;;;15.05;9.95;;;19.70;86.80;;;;;;5005889;28;20543;-77
2021/09/10 01:52:35;;;;;;;14.77;10.68;;;19.60;86.90;;;;;;5034937;28;20065;-74
2021/09/10 01:55:00;;;;;;;15.85;9.93;;;19.60;86.90;;;;;;5011236;28;20057;-74
2021/09/10 01:57:26;;;;;;;13.75;9.93;;;19.60;86.80;;;;;;5008590;28;20034;-76
2021/09/10 01:59:52;;;;;;;15.05;10.35;;;19.50;86.90;;;;;;5010653;28;20092;-77
2021/09/10 02:02:18;;;;;;;14.13;9.85;;;19.60;86.80;;;;;;5003851;28;20045;-74
2021/09/10 02:04:44;;;;;;;13.48;8.55;;;19.50;86.70;;;;;;5002968;28;20096;-74
2021/09/10 02:07:10;;;;;;;14.68;8.88;;;19.50;86.80;;;;;;5001358;28;20041;-74
2021/09/10 02:09:35;;;;;;;12.75;8.57;;;19.50;86.70;;;;;;5004152;28;20033;-73
2021/09/10 02:12:05;;;;;;;12.02;7.63;;;19.40;86.70;;;;;;5000495;28;20049;-76
2021/09/10 02:14:32;;;;;;;10.60;7.28;;;19.30;86.70;;;;;;5002830;28;20033;-74
2021/09/10 02:16:58;;;;;;;12.20;7.63;;;19.40;86.80;;;;;;5004374;28;20026;-75
2021/09/10 02:19:23;;;;;;;11.60;7.80;;;19.40;86.60;;;;;;5025330;28;20057;-74
2021/09/10 02:21:49;;;;;;;11.10;8.10;;;19.30;86.50;;;;;;4998031;28;20022;-74
2021/09/10 02:24:15;;;;;;;12.93;7.28;;;19.40;86.50;;;;;;4999334;28;20038;-74
2021/09/10 02:26:41;;;;;;;12.40;7.50;;;19.30;86.40;;;;;;4997051;28;20041;-75
2021/09/10 02:29:07;;;;;;;11.02;7.07;;;19.30;86.40;;;;;;4997941;28;20381;-75
2021/09/10 02:31:32;;;;;;;11.57;7.50;;;19.30;86.40;;;;;;5001884;28;20413;-74
2021/09/10 02:33:58;;;;;;;11.07;7.47;;;19.20;86.40;;;;;;5004996;28;20056;-75
2021/09/10 02:36:24;;;;;;;11.85;7.85;;;19.10;86.50;;;;;;5001648;28;20099;-76
2021/09/10 02:38:50;;;;;;;11.00;6.85;;;19.10;86.40;;;;;;5001929;28;20030;-74
2021/09/10 02:41:16;;;;;;;8.88;5.55;;;19.10;86.60;;;;;;4998566;28;20046;-75
2021/09/10 02:43:42;;;;;;;12.35;7.22;;;19.10;86.30;;;;;;4996469;28;20037;-77
2021/09/10 02:46:07;;;;;;;11.30;6.20;;;19.10;86.40;;;;;;5000785;28;20042;-75
2021/09/10 02:48:33;;;;;;;9.25;6.30;;;19.10;86.20;;;;;;5005778;28;20038;-78
2021/09/10 02:50:59;;;;;;;12.10;6.30;;;19.10;86.10;;;;;;5003669;28;20057;-76
2021/09/10 02:53:25;;;;;;;9.60;6.35;;;19.10;86.10;;;;;;5002555;28;20026;-75
2021/09/10 02:55:51;;;;;;;9.93;6.28;;;19.10;86.10;;;;;;5002438;28;20085;-74
2021/09/10 02:58:17;;;;;;;11.32;6.20;;;19.10;86.10;;;;;;5002971;28;20039;-75
2021/09/10 03:00:42;;;;;;;11.45;6.88;;;19.00;86.30;;;;;;5003066;28;20057;-74
2021/09/10 03:03:08;;;;;;;10.50;6.60;;;19.00;86.30;;;;;;5008115;28;20034;-75
2021/09/10 03:05:34;;;;;;;10.57;6.32;;;19.00;86.30;;;;;;5011688;28;20045;-74
2021/09/10 03:08:00;;;;;;;9.63;6.38;;;19.00;86.30;;;;;;5004380;28;20473;-76
2021/09/10 03:10:25;;;;;;;10.63;6.50;;;19.00;86.20;;;;;;5008474;28;20034;-74
2021/09/10 03:12:51;;;;;;;9.65;6.38;;;19.00;86.30;;;;;;5004196;28;20061;-74
2021/09/10 03:15:17;;;;;;;10.73;6.70;;;19.00;86.20;;;;;;5006749;28;20052;-75
2021/09/10 03:17:43;;;;;;;8.90;6.00;;;18.90;86.30;;;;;;5004302;28;20049;-74
2021/09/10 03:20:09;;;;;;;13.05;6.47;;;19.00;86.30;;;;;;5005568;28;20034;-74
2021/09/10 03:22:35;;;;;;;9.30;5.88;;;19.00;86.30;;;;;;5013568;28;20049;-76
2021/09/10 03:25:02;;;;;;;10.30;5.95;;;19.00;86.40;;;;;;5033981;28;21040;-76
2021/09/10 03:27:28;;;;;;;9.63;6.20;;;18.90;86.50;;;;;;5000389;28;20045;-79
2021/09/10 03:29:55;;;;;;;10.02;6.10;;;19.00;86.40;;;;;;5002404;28;20034;-74
2021/09/10 03:32:21;;;;;;;11.25;6.15;;;19.00;86.40;;;;;;5005586;28;20034;-75
2021/09/10 03:34:47;;;;;;;12.38;7.60;;;18.90;86.40;;;;;;5003511;28;20041;-75
2021/09/10 03:37:13;;;;;;;9.88;6.80;;;18.90;86.50;;;;;;5035283;28;20041;-75
2021/09/10 03:39:39;;;;;;;10.48;6.95;;;18.90;86.60;;;;;;5005179;28;20153;-74
2021/09/10 03:42:05;;;;;;;10.10;6.70;;;18.90;86.60;;;;;;5001401;28;20033;-74
2021/09/10 03:44:31;;;;;;;10.38;6.65;;;18.90;86.60;;;;;;5005714;28;20916;-77
2021/09/10 03:46:59;;;;;;;9.85;6.43;;;18.90;86.80;;;;;;5001758;28;20036;-74
2021/09/10 03:49:25;;;;;;;12.73;7.38;;;18.90;86.80;;;;;;5004650;28;20113;-74
2021/09/10 03:51:51;;;;;;;13.57;7.22;;;19.00;86.80;;;;;;5033588;28;20495;-73
2021/09/10 03:54:17;;;;;;;11.32;6.85;;;19.00;87.00;;;;;;5005324;28;20105;-74
2021/09/10 03:56:42;;;;;;;10.82;7.20;;;18.90;87.00;;;;;;5002004;28;20464;-78
2021/09/10 03:59:08;;;;;;;11.32;6.80;;;18.90;86.90;;;;;;4999609;28;20035;-75
2021/09/10 04:01:33;;;;;;;12.70;7.13;;;19.00;87.00;;;;;;5002761;28;20064;-75
2021/09/10 04:03:59;;;;;;;9.85;7.32;;;18.90;86.90;;;;;;4999143;28;20042;-75
2021/09/10 04:06:25;;;;;;;12.10;7.57;;;19.00;87.30;;;;;;4998525;28;20206;-73
2021/09/10 04:08:50;;;;;;;12.32;6.95;;;18.90;87.20;;;;;;5003443;28;20049;-74
2021/09/10 04:11:16;;;;;;;10.40;7.43;;;19.00;87.10;;;;;;5030386;28;20076;-75
2021/09/10 04:13:42;;;;;;;12.13;7.70;;;18.90;87.20;;;;;;5002103;28;20046;-74
2021/09/10 04:16:08;;;;;;;12.93;7.85;;;19.00;87.10;;;;;;5004348;28;20038;-74
2021/09/10 04:18:33;;;;;;;12.77;7.60;;;19.00;87.00;;;;;;5002797;28;20033;-74
2021/09/10 04:20:59;;;;;;;11.20;7.05;;;19.00;87.10;;;;;;5003659;28;20111;-77
2021/09/10 04:23:25;;;;;;;14.63;7.43;;;19.00;87.00;;;;;;5005268;28;20631;-74
2021/09/10 04:25:50;;;;;;;12.20;7.97;;;19.00;87.00;;;;;;5001192;28;20508;-75
2021/09/10 04:28:16;;;;;;;11.02;7.63;;;19.00;86.90;;;;;;5001873;28;20112;-74
2021/09/10 04:30:42;;;;;;;12.32;8.15;;;19.10;86.90;;;;;;5030181;28;20035;-76
2021/09/10 04:33:08;;;;;;;11.68;8.48;;;19.10;86.90;;;;;;5002663;28;20034;-76
2021/09/10 04:35:33;;;;;;;12.32;7.97;;;19.10;86.70;;;;;;5004539;28;20045;-75
2021/09/10 04:37:59;;;;;;;13.77;8.00;;;19.00;86.70;;;;;;5009259;28;20038;-74
2021/09/10 04:40:25;;;;;;;10.57;7.38;;;19.00;86.60;;;;;;5002838;28;20030;-76
2021/09/10 04:42:50;;;;;;;11.60;8.23;;;19.00;86.70;;;;;;4995114;28;20113;-75
2021/09/10 04:45:16;;;;;;;12.63;7.80;;;19.00;86.70;;;;;;5000474;28;20037;-75
2021/09/10 04:47:42;;;;;;;12.60;7.38;;;19.00;86.70;;;;;;4995408;28;20038;-75
2021/09/10 04:50:07;;;;;;;11.50;7.72;;;18.90;86.70;;;;;;5008384;28;20042;-75
2021/09/10 04:52:35;;;;;;;12.65;7.45;;;18.90;86.80;;;;;;5004581;28;20267;-75
2021/09/10 04:55:00;;;;;;;12.88;7.82;;;18.80;86.90;;;;;;5003077;28;20042;-80
2021/09/10 04:57:26;;;;;;;12.38;7.90;;;18.80;87.00;;;;;;5049664;28;20053;-80
2021/09/10 04:59:53;;;;;;;12.43;8.05;;;18.80;87.20;;;;;;5048437;28;20024;-80
2021/09/10 05:02:19;;;;;;;12.77;8.32;;;18.70;87.30;;;;;;5032103;28;20041;-74
2021/09/10 05:04:45;;;;;;;11.10;7.85;;;18.70;87.40;;;;;;5030507;28;20294;-76
2021/09/10 05:07:11;;;;;;;13.85;7.40;;;18.70;87.50;;;;;;5032593;28;20041;-77
2021/09/10 05:09:36;;;;;;;9.55;7.00;;;18.70;87.40;;;;;;5028980;28;20038;-73
2021/09/10 05:12:03;;;;;;;14.73;9.05;;;18.70;87.50;;;;;;5029018;28;20056;-76
2021/09/10 05:14:29;;;;;;;11.52;8.05;;;18.60;87.60;;;;;;5031235;28;20033;-74
2021/09/10 05:16:55;;;;;;;11.68;7.85;;;18.60;87.60;;;;;;5027588;28;20413;-78
2021/09/10 05:19:21;;;;;;;12.00;7.72;;;18.60;87.60;;;;;;5017461;28;20041;-75
2021/09/10 05:21:46;;;;;;;14.30;7.55;;;18.70;87.50;;;;;;5028464;28;20040;-74
2021/09/10 05:24:12;;;;;;;11.65;7.97;;;18.70;87.60;;;;;;5022397;28;20129;-74
2021/09/10 05:26:38;;;;;;;13.05;8.30;;;18.70;87.60;;;;;;5021717;28;20389;-76
2021/09/10 05:29:03;;;;;;;14.15;9.27;;;18.80;87.60;;;;;;5019614;28;20460;-71
2021/09/10 05:31:29;;;;;;;13.45;8.73;;;18.70;87.50;;;;;;5023871;28;20038;-71
2021/09/10 05:33:55;;;;;;;13.52;9.07;;;18.80;87.60;;;;;;5025084;28;20120;-71
2021/09/10 05:36:23;;;;;;;12.10;9.23;;;18.80;87.60;;;;;;5019629;28;22394;-71
2021/09/10 05:38:49;;;;;;;12.73;8.55;;;18.80;87.70;;;;;;5023005;28;20099;-73
2021/09/10 05:41:14;;;;;;;13.82;9.35;;;18.80;87.60;;;;;;5021942;28;20412;-72
2021/09/10 05:43:40;;;;;;;15.85;9.02;;;18.90;87.50;;;;;;5011925;28;20084;-71
2021/09/10 05:46:06;;;;;;;12.80;9.07;;;19.00;87.50;;;;;;5014877;28;20038;-71
2021/09/10 05:48:33;;;;;;;13.10;9.23;;;19.00;87.40;;;;;;5006316;28;20038;-71
2021/09/10 05:50:58;;;;;;;16.23;9.70;;;19.00;87.40;;;;;;5001518;28;20030;-70
2021/09/10 05:53:24;;;;;;;13.90;9.68;;;19.00;87.40;;;;;;5007652;28;20034;-70
2021/09/10 05:55:50;;;;;;;14.75;9.73;;;19.10;87.30;;;;;;5020141;28;20040;-71
2021/09/10 05:58:16;;;;;;;18.15;10.10;;;19.00;87.30;;;;;;5017566;28;20037;-74
2021/09/10 06:00:42;;;;;;;15.35;10.35;;;19.10;87.30;;;;;;5023658;28;20095;-69
2021/09/10 06:03:07;;;;;;;15.00;9.85;;;19.10;87.10;;;;;;5016590;28;20076;-70
2021/09/10 06:05:33;;;;;;;12.80;9.63;;;19.10;87.20;;;;;;5018787;28;20048;-72
2021/09/10 06:08:00;;;;;;;14.57;9.77;;;19.10;87.10;;;;;;5005774;28;20366;-70
2021/09/10 06:10:26;;;;;;;18.73;10.88;;;19.10;87.20;;;;;;5014324;28;20041;-70
2021/09/10 06:12:52;;;;;;;13.77;9.23;;;19.20;87.00;;;;;;5005707;28;20049;-68
2021/09/10 06:15:17;;;;;;;14.80;9.65;;;19.20;87.00;;;;;;5003423;28;20037;-69
2021/09/10 06:17:43;;;;;;;18.27;11.00;;;19.30;86.90;;;;;;5012573;28;20030;-68
2021/09/10 06:20:10;;;;;;;15.93;10.93;;;19.20;86.70;;;;;;5020403;28;20400;-68
2021/09/10 06:22:37;;;;;;;15.45;10.02;;;19.20;86.70;;;;;;5012727;28;20048;-69
2021/09/10 06:25:04;;;;;;;15.48;9.30;;;19.30;86.90;;;;;;5022826;28;20037;-72
2021/09/10 06:27:32;;;;;;;13.95;9.95;;;19.40;86.80;;;;;;5021718;28;20084;-71
2021/09/10 06:29:58;;;;;;;14.27;9.25;;;19.40;86.70;;;;;;5011416;28;20030;-68
2021/09/10 06:32:27;;;;;;;11.93;9.13;;;19.50;86.60;;;;;;5021885;28;20041;-72
2021/09/10 06:34:52;;;;;;;13.65;9.45;;;19.60;86.40;;;;;;5023269;28;20061;-69
2021/09/10 06:37:18;;;;;;;13.25;9.35;;;19.70;85.90;;;;;;5021527;28;20068;-70
2021/09/10 06:39:45;;;;;;;13.15;9.30;;;19.80;85.80;;;;;;5019629;28;20037;-68
2021/09/10 06:42:11;;;;;;;14.20;9.48;;;19.90;85.50;;;;;;5022866;28;20034;-68
2021/09/10 06:44:37;;;;;;;13.48;9.50;;;20.00;85.10;;;;;;5024292;28;20038;-69
2021/09/10 06:47:03;;;;;;;14.07;9.20;;;20.00;84.80;;;;;;5021455;28;20036;-69
2021/09/10 06:49:30;;;;;;;13.75;9.43;;;20.10;84.50;;;;;;5017412;28;20050;-69
2021/09/10 06:51:56;;;;;;;14.02;9.40;;;20.00;84.30;;;;;;5022332;28;20034;-68
2021/09/10 06:54:22;;;;;;;15.43;8.70;;;20.00;84.50;;;;;;5022038;28;20048;-69
2021/09/10 06:56:48;;;;;;;15.93;9.82;;;19.90;84.80;;;;;;5023154;28;20071;-69
2021/09/10 06:59:17;;;;;;;15.45;9.75;;;19.90;84.90;;;;;;5017796;28;20042;-70
2021/09/10 07:01:43;;;;;;;13.50;9.27;;;19.90;85.10;;;;;;5028566;28;20025;-70
2021/09/10 07:04:09;;;;;;;13.95;9.23;;;20.00;85.20;;;;;;5018769;28;20034;-70
2021/09/10 07:06:35;;;;;;;16.77;9.75;;;20.00;85.10;;;;;;5018999;28;20064;-70
2021/09/10 07:09:01;;;;;;;13.82;9.63;;;20.00;84.90;;;;;;5017289;28;20044;-70
2021/09/10 07:11:26;;;;;;;15.23;9.80;;;20.10;85.00;;;;;;5009246;28;20441;-69
2021/09/10 07:13:52;;;;;;;15.20;9.75;;;20.10;84.90;;;;;;5010095;28;20022;-69
2021/09/10 07:16:18;;;;;;;12.40;9.30;;;20.10;84.90;;;;;;5003991;28;20041;-69
2021/09/10 07:18:44;;;;;;;14.82;10.40;;;20.20;84.60;;;;;;5012170;28;20038;-69
2021/09/10 07:21:10;;;;;;;13.63;9.13;;;20.30;84.40;;;;;;5018859;28;20050;-69
2021/09/10 07:23:35;;;;;;;17.52;10.18;;;20.30;84.40;;;;;;5023829;28;20369;-69
2021/09/10 07:26:04;;;;;;;13.52;8.90;;;20.30;84.20;;;;;;5013948;28;20097;-71
2021/09/10 07:28:34;;;;;;;13.65;8.60;;;20.40;84.20;;;;;;5040128;28;20021;-69
2021/09/10 07:31:01;;;;;;;15.95;9.68;;;20.50;84.10;;;;;;5022253;28;20036;-69
2021/09/10 07:33:27;;;;;;;18.13;10.77;;;20.50;83.80;;;;;;5004939;28;20465;-69
2021/09/10 07:35:54;;;;;;;13.98;9.10;;;20.60;83.60;;;;;;5015873;28;20085;-71
2021/09/10 07:38:20;;;;;;;12.38;9.57;;;20.60;83.70;;;;;;5025768;28;20076;-69
2021/09/10 07:40:47;;;;;;;14.95;9.18;;;20.70;83.60;;;;;;5023209;28;20037;-69
2021/09/10 07:43:13;;;;;;;14.93;10.02;;;20.80;83.40;;;;;;5009484;28;20068;-69
2021/09/10 07:45:39;;;;;;;13.77;9.80;;;20.90;83.30;;;;;;5022648;28;20398;-69
2021/09/10 07:48:05;;;;;;;14.20;9.45;;;21.00;82.80;;;;;;5016513;28;20483;-68
2021/09/10 07:50:31;;;;;;;13.82;10.25;;;21.10;82.50;;;;;;5016105;28;20104;-72
2021/09/10 07:52:57;;;;;;;14.63;9.07;;;21.10;82.40;;;;;;5020706;28;20121;-69
2021/09/10 07:55:22;;;;;;;13.23;8.85;;;21.20;81.80;;;;;;5002766;28;20033;-73
2021/09/10 07:57:48;;;;;;;14.18;9.23;;;21.30;81.70;;;;;;5018993;28;20045;-72
2021/09/10 08:00:17;;;;;;;15.32;9.80;;;21.30;81.90;;;;;;5012560;28;20115;-70
2021/09/10 08:02:43;;;;;;;15.52;10.32;;;21.50;81.50;;;;;;5018114;28;20025;-72
2021/09/10 08:05:09;;;;;;;13.60;8.88;;;21.60;81.00;;;;;;5021319;28;20033;-69
2021/09/10 08:07:35;;;;;;;12.00;8.90;;;21.70;81.00;;;;;;5021648;28;20021;-70
2021/09/10 08:10:01;;;;;;;13.20;9.57;;;21.80;80.30;;;;;;5026033;28;20021;-70
2021/09/10 08:12:28;;;;;;;13.23;9.38;;;21.90;80.00;;;;;;5005884;28;20461;-69
2021/09/10 08:14:54;;;;;;;13.90;9.80;;;21.80;79.80;;;;;;5019864;28;20464;-70
2021/09/10 08:17:19;;;;;;;13.88;9.43;;;21.70;80.30;;;;;;5020245;28;20033;-70
2021/09/10 08:19:46;;;;;;;14.23;8.63;;;21.80;80.20;;;;;;5013236;28;20104;-72
2021/09/10 08:22:11;;;;;;;15.07;9.15;;;21.90;80.10;;;;;;5018863;28;20033;-70
2021/09/10 08:24:37;;;;;;;21.23;10.85;;;22.00;80.00;;;;;;5013932;28;20044;-70
2021/09/10 08:27:02;;;;;;;13.45;9.55;;;22.00;79.40;;;;;;5004376;28;20231;-70
2021/09/10 08:29:28;;;;;;;16.15;10.32;;;22.00;79.60;;;;;;5013279;28;20026;-69
2021/09/10 08:31:54;;;;;;;14.85;10.23;;;22.10;79.30;;;;;;5024060;28;20446;-69
2021/09/10 08:34:19;;;;;;;13.95;9.32;;;22.10;78.90;;;;;;5021412;28;20481;-70
2021/09/10 08:36:46;;;;;;;13.35;9.52;;;22.20;79.30;;;;;;5023401;28;20109;-69
2021/09/10 08:39:11;;;;;;;12.68;8.90;;;22.40;78.60;;;;;;5022645;28;20092;-68
2021/09/10 08:41:39;;;;;;;13.20;8.80;;;22.50;78.30;;;;;;5022175;28;20465;-69
2021/09/10 08:44:06;;;;;;;13.75;8.88;;;22.60;78.40;;;;;;5027580;28;20032;-68
2021/09/10 08:46:36;;;;;;;13.00;8.07;;;22.60;78.10;;;;;;5023714;28;20108;-69
2021/09/10 08:49:02;;;;;;;12.32;8.27;;;22.70;77.40;;;;;;5026747;28;20373;-69
2021/09/10 08:51:28;;;;;;;12.77;7.65;;;22.70;77.50;;;;;;5026539;28;20029;-70
2021/09/10 08:53:53;;;;;;;11.60;8.13;;;22.70;77.40;;;;;;5027153;28;20525;-69
2021/09/10 08:56:19;;;;;;;11.50;7.75;;;22.70;77.20;;;;;;5022653;28;20037;-69
2021/09/10 08:58:44;;;;;;;12.63;7.93;;;22.80;77.10;;;;;;5026607;28;20075;-72
2021/09/10 09:01:10;;;;;;;11.02;7.82;;;22.90;77.10;;;;;;5019524;28;20049;-70
2021/09/10 09:03:36;;;;;;;12.40;7.43;;;23.00;76.30;;;;;;5024070;28;20116;-70
2021/09/10 09:06:02;;;;;;;14.05;7.95;;;23.10;76.30;;;;;;5019939;28;20362;-70
2021/09/10 09:08:27;;;;;;;13.18;7.00;;;23.20;75.30;;;;;;5024546;28;20042;-70
2021/09/10 09:11:02;;;;;;;11.20;7.18;;;23.40;75.30;;;;;;5025196;28;20037;-71
2021/09/10 09:13:40;;;;;;;12.13;6.88;;;23.50;75.10;;;;;;5003291;28;20040;-69
2021/09/10 09:16:30;;;;;;;12.00;7.38;;;23.50;75.20;;;;;;5014405;28;20144;-69
2021/09/10 09:18:57;;;;;;;12.73;7.68;;;23.50;74.80;;;;;;5020264;28;20045;-72
2021/09/10 09:21:33;;;;;;;13.55;8.35;;;23.40;74.50;;;;;;5017073;28;20036;-69
2021/09/10 09:24:20;;;;;;;12.10;7.55;;;23.30;75.40;;;;;;5023651;28;20034;-69
2021/09/10 09:26:49;;;;;;;13.32;8.10;;;23.40;75.60;;;;;;4998375;28;20501;-70
2021/09/10 09:29:17;;;;;;;11.45;7.05;;;23.50;75.20;;;;;;4997400;28;20493;-69
2021/09/10 09:31:54;;;;;;;10.75;6.13;;;23.60;75.20;;;;;;4996870;28;20525;-69
2021/09/10 09:34:46;;;;;;;12.13;7.22;;;23.80;74.70;;;;;;4999568;28;20037;-69
2021/09/10 09:37:16;;;;;;;11.73;7.35;;;23.90;74.00;;;;;;4995491;28;20561;-69
2021/09/10 09:39:56;;;;;;;11.50;8.13;;;24.00;73.70;;;;;;5001607;28;20030;-70
2021/09/10 09:42:29;;;;;;;10.52;6.93;;;24.10;73.00;;;;;;5028246;28;20046;-70
2021/09/10 09:45:26;;;;;;;11.10;6.75;;;24.30;73.00;;;;;;4992556;28;20140;-69
2021/09/10 09:47:52;;;;;;;16.38;8.20;;;24.60;71.50;;;;;;4995958;28;20030;-69
2021/09/10 09:50:20;;;;;;;10.82;6.55;;;24.80;71.30;;;;;;4997119;28;20113;-70
2021/09/10 09:52:50;;;;;;;10.27;6.90;;;24.90;70.30;;;;;;5000004;28;20108;-71
2021/09/10 09:55:17;;;;;;;10.50;5.72;;;25.20;68.40;;;;;;5001709;28;20057;-70
2021/09/10 09:57:44;;;;;;;10.13;6.60;;;25.30;68.70;;;;;;4996284;28;20034;-71
2021/09/10 10:00:10;;;;;;;12.35;7.07;;;25.30;68.10;;;;;;4989721;28;20749;-68
2021/09/10 10:02:37;;;;;;;10.75;6.80;;;25.00;68.70;;;;;;5012428;28;20085;-69
2021/09/10 10:05:05;;;;;;;9.35;6.03;;;25.20;68.80;;;;;;4993595;28;20413;-69
2021/09/10 10:07:43;;;;;;;10.50;6.10;;;25.30;68.90;;;;;;4995086;28;20046;-69
2021/09/10 10:10:13;;;;;;;14.40;6.35;;;25.40;68.50;;;;;;5002026;28;20026;-69
2021/09/10 10:12:41;;;;;;;10.05;6.32;;;25.30;68.70;;;;;;5004875;28;20030;-70
2021/09/10 10:15:29;;;;;;;12.82;7.30;;;25.20;68.40;;;;;;4997684;28;20045;-70
2021/09/10 10:17:56;;;;;;;8.98;5.82;;;25.00;69.00;;;;;;5006440;28;20111;-70
2021/09/10 10:20:43;;;;;;;11.05;7.25;;;25.00;69.80;;;;;;5025971;28;20533;-69
2021/09/10 10:23:43;;;;;;;10.40;6.40;;;25.10;69.00;;;;;;5000350;28;20029;-70
2021/09/10 10:26:18;;;;;;;12.43;7.03;;;25.10;69.00;;;;;;5000828;28;20042;-70
2021/09/10 10:28:48;;;;;;;14.73;7.15;;;25.00;69.50;;;;;;5031505;28;20034;-73
2021/09/10 10:31:15;;;;;;;12.50;7.28;;;24.70;69.40;;;;;;4992995;28;20034;-71
2021/09/10 10:34:04;;;;;;;12.80;6.90;;;24.60;70.30;;;;;;4990729;28;20041;-69
2021/09/10 10:36:35;;;;;;;11.50;5.50;;;24.50;70.00;;;;;;4991454;28;20033;-70
2021/09/10 10:39:31;;;;;;;10.07;5.80;;;24.60;69.80;;;;;;4994546;28;20484;-70
2021/09/10 10:42:07;;;;;;;13.57;6.10;;;25.10;68.90;;;;;;5015082;28;20074;-72
2021/09/10 10:44:33;;;;;;;8.35;5.72;;;25.50;67.50;;;;;;5012719;28;20076;-70
2021/09/10 10:47:11;;;;;;;9.98;5.63;;;25.80;65.50;;;;;;5021262;28;20437;-73
2021/09/10 10:49:50;;;;;;;11.05;6.25;;;26.00;65.30;;;;;;5002187;28;20033;-70
2021/09/10 10:52:33;;;;;;;9.88;6.70;;;26.30;63.60;;;;;;5016921;28;20057;-70
2021/09/10 10:55:18;;;;;;;9.37;7.03;;;26.50;63.10;;;;;;5007254;28;20434;-70
2021/09/10 10:57:45;;;;;;;10.27;6.78;;;26.40;63.20;;;;;;5006786;28;20034;-69
2021/09/10 11:00:42;;;;;;;9.60;6.90;;;26.30;63.60;;;;;;5017595;28;20475;-72
2021/09/10 11:03:16;;;;;;;9.95;7.97;;;26.30;63.70;;;;;;5013986;28;20469;-70
2021/09/10 11:05:49;;;;;;;10.70;6.80;;;25.90;64.00;;;;;;5015812;28;20069;-73
2021/09/10 11:08:19;;;;;;;9.77;7.95;;;25.80;64.10;;;;;;5014526;28;20026;-71
2021/09/10 11:10:51;;;;;;;10.82;8.23;;;25.60;64.60;;;;;;5017888;28;20052;-72
2021/09/10 11:13:16;;;;;;;12.18;7.45;;;25.40;65.10;;;;;;5022521;28;20057;-70
2021/09/10 11:15:42;;;;;;;12.00;7.93;;;25.30;65.40;;;;;;5012524;28;20064;-69
2021/09/10 11:18:12;;;;;;;10.25;8.68;;;25.20;66.20;;;;;;5001938;28;20084;-69
2021/09/10 11:20:42;;;;;;;10.73;8.55;;;25.10;66.20;;;;;;5006311;28;20030;-70
2021/09/10 11:23:10;;;;;;;9.63;8.48;;;25.00;66.60;;;;;;5021915;28;20041;-70
2021/09/10 11:25:51;;;;;;;12.23;9.00;;;25.10;67.60;;;;;;5011066;28;20034;-69
2021/09/10 11:28:18;;;;;;;12.68;9.98;;;25.10;66.60;;;;;;5007193;28;20045;-69
2021/09/10 11:30:46;;;;;;;12.65;10.38;;;25.10;66.40;;;;;;5027578;28;20040;-70
2021/09/10 11:33:12;;;;;;;12.27;9.63;;;25.10;66.40;;;;;;5025181;28;20492;-69
2021/09/10 11:35:38;;;;;;;12.10;9.70;;;25.00;66.70;;;;;;5022155;28;20029;-70
2021/09/10 11:38:12;;;;;;;12.98;9.95;;;25.10;66.90;;;;;;5025721;28;20017;-70
2021/09/10 11:40:41;;;;;;;12.25;10.63;;;25.10;66.00;;;;;;5023880;28;20503;-70
2021/09/10 11:43:08;;;;;;;11.82;9.98;;;25.10;65.80;;;;;;5030858;28;20056;-70
2021/09/10 11:45:36;;;;;;;13.18;11.60;;;25.00;67.20;;;;;;5027498;28;20053;-69
2021/09/10 11:48:04;;;;;;;13.75;12.32;;;24.90;66.90;;;;;;5022935;28;20056;-70
2021/09/10 11:50:50;;;;;;;14.30;12.80;;;25.00;67.30;;;;;;5027559;28;20021;-70
2021/09/10 11:53:21;;;;;;;14.75;12.05;;;25.20;67.10;;;;;;5029267;28;20463;-69
2021/09/10 11:56:00;;;;;;;18.15;13.38;;;25.50;66.40;;;;;;5027334;28;20032;-69
2021/09/10 11:58:37;;;;;;;16.10;14.40;;;25.50;65.80;;;;;;5019224;28;20034;-70
2021/09/10 12:01:21;;;;;;;14.45;12.95;;;25.30;66.70;;;;;;5021995;28;20075;-70
2021/09/10 12:03:53;;;;;;;13.43;11.80;;;25.30;66.20;;;;;;5001339;28;20500;-69
2021/09/10 12:06:32;;;;;;;15.48;11.43;;;25.40;66.00;;;;;;5006693;28;20045;-70
2021/09/10 12:09:13;;;;;;;17.80;10.80;;;25.40;66.10;;;;;;5026178;28;20030;-69
2021/09/10 12:12:22;;;;;;;14.55;9.57;;;25.40;65.40;;;;;;5010536;28;20038;-70
2021/09/10 12:14:53;;;;;;;16.73;10.32;;;25.30;65.30;;;;;;5005845;28;20037;-69
2021/09/10 12:17:26;;;;;;;12.98;10.52;;;25.20;65.50;;;;;;5014600;28;20083;-70
2021/09/10 12:19:55;;;;;;;13.87;11.03;;;25.10;66.70;;;;;;5018722;28;20026;-70
2021/09/10 12:22:44;;;;;;;15.43;13.48;;;25.00;70.60;;;;;;5026798;28;20072;-70
2021/09/10 12:25:51;;;;;;;15.10;13.57;;;24.80;71.50;;;;;;5001835;28;21273;-70
2021/09/10 12:28:22;;;;;;;16.42;13.02;;;24.60;73.30;;;;;;5007309;28;20041;-70
2021/09/10 12:30:58;;;;;;;12.40;11.07;;;24.60;74.20;;;;;;5003169;28;20469;-71
2021/09/10 12:33:25;;;;;;;13.40;9.75;;;24.60;73.20;;;;;;5011431;28;20037;-74
2021/09/10 12:35:53;;;;;;;13.50;10.13;;;24.80;73.00;;;;;;5004359;28;20069;-69
2021/09/10 12:38:22;;;;;;;10.68;8.68;;;24.90;70.70;;;;;;5005479;28;20496;-69
2021/09/10 12:40:50;;;;;;;13.13;9.73;;;24.90;71.10;;;;;;5021912;28;20037;-69